sensor_id;sensor_type;location;lat;lon;timestamp;P1;durP1;ratioP1;P2;durP2;ratioP2
28934;SDS011;16044;52.726;-2.108;2023-02-12T00:01:19;9.35;;;4.45;;
28934;SDS011;16044;52.726;-2.108;2023-02-12T00:03:47;7.60;;;4.80;;
28934;SDS011;16044;52.726;-2.108;2023-02-12T00:06:15;10.70;;;5.20;;
28934;SDS011;16044;52.726;-2.108;2023-02-12T00:08:42;10.77;;;5.20;;
28934;SDS011;16044;52.726;-2.108;2023-02-12T00:11:10;10.75;;;4.97;;
28934;SDS011;16044;52.726;-2.108;2023-02-12T00:13:45;11.65;;;5.10;;
28934;SDS011;16044;52.726;-2.108;2023-02-12T00:16:17;10.43;;;5.63;;
28934;SDS011;16044;52.726;-2.108;2023-02-12T00:21:18;11.07;;;5.35;;
28934;SDS011;16044;52.726;-2.108;2023-02-12T00:23:45;12.73;;;5.70;;
28934;SDS011;16044;52.726;-2.108;2023-02-12T00:26:13;9.77;;;5.35;;
28934;SDS011;16044;52.726;-2.108;2023-02-12T00:28:43;12.98;;;5.60;;
28934;SDS011;16044;52.726;-2.108;2023-02-12T00:31:11;13.43;;;5.82;;
28934;SDS011;16044;52.726;-2.108;2023-02-12T00:33:42;12.57;;;5.38;;
28934;SDS011;16044;52.726;-2.108;2023-02-12T00:36:09;11.77;;;5.90;;
28934;SDS011;16044;52.726;-2.108;2023-02-12T00:38:42;10.27;;;5.28;;
28934;SDS011;16044;52.726;-2.108;2023-02-12T00:41:09;9.38;;;5.15;;
28934;SDS011;16044;52.726;-2.108;2023-02-12T00:43:37;12.45;;;7.07;;
28934;SDS011;16044;52.726;-2.108;2023-02-12T00:46:04;13.70;;;7.97;;
28934;SDS011;16044;52.726;-2.108;2023-02-12T00:48:32;15.20;;;9.52;;
28934;SDS011;16044;52.726;-2.108;2023-02-12T00:51:00;18.30;;;9.10;;
28934;SDS011;16044;52.726;-2.108;2023-02-12T00:53:28;19.02;;;10.20;;
28934;SDS011;16044;52.726;-2.108;2023-02-12T00:55:57;31.08;;;17.63;;
28934;SDS011;16044;52.726;-2.108;2023-02-12T00:58:24;24.35;;;14.85;;
28934;SDS011;16044;52.726;-2.108;2023-02-12T01:00:52;28.63;;;16.85;;
28934;SDS011;16044;52.726;-2.108;2023-02-12T01:03:19;27.98;;;16.35;;
28934;SDS011;16044;52.726;-2.108;2023-02-12T01:05:46;26.23;;;15.30;;
28934;SDS011;16044;52.726;-2.108;2023-02-12T01:08:14;22.17;;;13.07;;
28934;SDS011;16044;52.726;-2.108;2023-02-12T01:10:42;18.35;;;10.32;;
28934;SDS011;16044;52.726;-2.108;2023-02-12T01:13:13;20.83;;;10.93;;
28934;SDS011;16044;52.726;-2.108;2023-02-12T01:15:41;17.80;;;9.57;;
28934;SDS011;16044;52.726;-2.108;2023-02-12T01:18:08;16.73;;;9.02;;
28934;SDS011;16044;52.726;-2.108;2023-02-12T01:20:35;12.07;;;7.18;;
28934;SDS011;16044;52.726;-2.108;2023-02-12T01:23:02;14.20;;;7.72;;
28934;SDS011;16044;52.726;-2.108;2023-02-12T01:25:32;10.70;;;6.13;;
28934;SDS011;16044;52.726;-2.108;2023-02-12T01:27:59;12.32;;;6.40;;
28934;SDS011;16044;52.726;-2.108;2023-02-12T01:30:26;11.93;;;6.15;;
28934;SDS011;16044;52.726;-2.108;2023-02-12T01:32:53;10.57;;;6.20;;
28934;SDS011;16044;52.726;-2.108;2023-02-12T01:35:20;12.40;;;5.82;;
28934;SDS011;16044;52.726;-2.108;2023-02-12T01:37:47;11.20;;;6.63;;
28934;SDS011;16044;52.726;-2.108;2023-02-12T01:40:14;13.52;;;6.60;;
28934;SDS011;16044;52.726;-2.108;2023-02-12T01:42:43;13.55;;;6.25;;
28934;SDS011;16044;52.726;-2.108;2023-02-12T01:47:43;10.15;;;6.00;;
28934;SDS011;16044;52.726;-2.108;2023-02-12T01:50:12;11.30;;;5.15;;
28934;SDS011;16044;52.726;-2.108;2023-02-12T01:52:45;9.80;;;5.30;;
28934;SDS011;16044;52.726;-2.108;2023-02-12T01:55:17;10.67;;;5.03;;
28934;SDS011;16044;52.726;-2.108;2023-02-12T01:57:46;9.80;;;5.40;;
28934;SDS011;16044;52.726;-2.108;2023-02-12T02:00:18;11.27;;;5.43;;
28934;SDS011;16044;52.726;-2.108;2023-02-12T02:02:56;9.95;;;4.88;;
28934;SDS011;16044;52.726;-2.108;2023-02-12T02:05:49;11.73;;;4.65;;
28934;SDS011;16044;52.726;-2.108;2023-02-12T02:08:29;8.13;;;4.47;;
28934;SDS011;16044;52.726;-2.108;2023-02-12T02:10:56;8.57;;;4.70;;
28934;SDS011;16044;52.726;-2.108;2023-02-12T02:13:23;7.25;;;4.15;;
28934;SDS011;16044;52.726;-2.108;2023-02-12T02:16:13;10.52;;;4.70;;
28934;SDS011;16044;52.726;-2.108;2023-02-12T02:18:58;8.23;;;4.45;;
28934;SDS011;16044;52.726;-2.108;2023-02-12T02:24:36;8.52;;;4.72;;
28934;SDS011;16044;52.726;-2.108;2023-02-12T02:31:03;8.35;;;4.10;;
28934;SDS011;16044;52.726;-2.108;2023-02-12T02:43:03;9.55;;;4.45;;
28934;SDS011;16044;52.726;-2.108;2023-02-12T02:45:37;8.52;;;4.55;;
28934;SDS011;16044;52.726;-2.108;2023-02-12T02:48:11;9.00;;;4.85;;
28934;SDS011;16044;52.726;-2.108;2023-02-12T02:50:47;10.27;;;5.18;;
28934;SDS011;16044;52.726;-2.108;2023-02-12T02:53:31;9.63;;;5.32;;
28934;SDS011;16044;52.726;-2.108;2023-02-12T02:56:06;10.75;;;5.72;;
28934;SDS011;16044;52.726;-2.108;2023-02-12T02:58:44;10.95;;;6.50;;
28934;SDS011;16044;52.726;-2.108;2023-02-12T03:01:27;11.45;;;7.00;;
28934;SDS011;16044;52.726;-2.108;2023-02-12T03:04:02;11.18;;;6.47;;
28934;SDS011;16044;52.726;-2.108;2023-02-12T03:06:39;12.57;;;7.38;;
28934;SDS011;16044;52.726;-2.108;2023-02-12T03:09:32;12.73;;;7.20;;
28934;SDS011;16044;52.726;-2.108;2023-02-12T03:12:11;10.48;;;5.97;;
28934;SDS011;16044;52.726;-2.108;2023-02-12T03:14:45;11.52;;;7.25;;
28934;SDS011;16044;52.726;-2.108;2023-02-12T03:17:20;12.80;;;6.75;;
28934;SDS011;16044;52.726;-2.108;2023-02-12T03:19:57;13.70;;;7.45;;
28934;SDS011;16044;52.726;-2.108;2023-02-12T03:22:31;11.77;;;7.05;;
28934;SDS011;16044;52.726;-2.108;2023-02-12T03:25:03;10.50;;;6.78;;
28934;SDS011;16044;52.726;-2.108;2023-02-12T03:27:41;12.13;;;7.53;;
28934;SDS011;16044;52.726;-2.108;2023-02-12T03:30:14;11.00;;;6.30;;
28934;SDS011;16044;52.726;-2.108;2023-02-12T03:35:38;16.10;;;8.13;;
28934;SDS011;16044;52.726;-2.108;2023-02-12T03:47:20;10.27;;;6.35;;
28934;SDS011;16044;52.726;-2.108;2023-02-12T03:50:10;10.40;;;5.72;;
28934;SDS011;16044;52.726;-2.108;2023-02-12T03:52:57;9.88;;;6.43;;
28934;SDS011;16044;52.726;-2.108;2023-02-12T03:55:24;11.15;;;6.45;;
28934;SDS011;16044;52.726;-2.108;2023-02-12T03:57:56;11.68;;;6.28;;
28934;SDS011;16044;52.726;-2.108;2023-02-12T04:00:26;11.55;;;6.10;;
28934;SDS011;16044;52.726;-2.108;2023-02-12T04:02:53;13.02;;;6.88;;
28934;SDS011;16044;52.726;-2.108;2023-02-12T04:05:22;12.35;;;7.22;;
28934;SDS011;16044;52.726;-2.108;2023-02-12T04:07:54;11.90;;;6.68;;
28934;SDS011;16044;52.726;-2.108;2023-02-12T04:19:19;10.95;;;6.95;;
28934;SDS011;16044;52.726;-2.108;2023-02-12T04:24:49;9.75;;;5.75;;
28934;SDS011;16044;52.726;-2.108;2023-02-12T04:32:48;12.63;;;6.22;;
28934;SDS011;16044;52.726;-2.108;2023-02-12T04:35:22;9.82;;;5.90;;
28934;SDS011;16044;52.726;-2.108;2023-02-12T04:40:37;7.97;;;5.22;;
28934;SDS011;16044;52.726;-2.108;2023-02-12T04:43:06;10.20;;;6.13;;
28934;SDS011;16044;52.726;-2.108;2023-02-12T04:45:34;15.02;;;6.00;;
28934;SDS011;16044;52.726;-2.108;2023-02-12T04:48:02;11.57;;;6.30;;
28934;SDS011;16044;52.726;-2.108;2023-02-12T04:50:37;10.43;;;5.35;;
28934;SDS011;16044;52.726;-2.108;2023-02-12T04:53:07;10.27;;;5.43;;
28934;SDS011;16044;52.726;-2.108;2023-02-12T04:55:35;9.90;;;4.78;;
28934;SDS011;16044;52.726;-2.108;2023-02-12T04:58:03;11.23;;;6.13;;
28934;SDS011;16044;52.726;-2.108;2023-02-12T05:00:31;12.85;;;6.47;;
28934;SDS011;16044;52.726;-2.108;2023-02-12T05:02:59;11.55;;;5.53;;
28934;SDS011;16044;52.726;-2.108;2023-02-12T05:05:26;7.43;;;4.72;;
28934;SDS011;16044;52.726;-2.108;2023-02-12T05:07:53;11.00;;;4.80;;
28934;SDS011;16044;52.726;-2.108;2023-02-12T05:10:20;7.97;;;4.60;;
28934;SDS011;16044;52.726;-2.108;2023-02-12T05:12:47;9.40;;;4.68;;
28934;SDS011;16044;52.726;-2.108;2023-02-12T05:15:13;9.20;;;4.40;;
28934;SDS011;16044;52.726;-2.108;2023-02-12T05:17:40;7.40;;;4.35;;
28934;SDS011;16044;52.726;-2.108;2023-02-12T05:20:08;9.45;;;4.85;;
28934;SDS011;16044;52.726;-2.108;2023-02-12T05:22:36;7.65;;;3.92;;
28934;SDS011;16044;52.726;-2.108;2023-02-12T05:25:03;7.13;;;4.47;;
28934;SDS011;16044;52.726;-2.108;2023-02-12T05:27:30;7.78;;;4.43;;
28934;SDS011;16044;52.726;-2.108;2023-02-12T05:29:57;7.63;;;4.68;;
28934;SDS011;16044;52.726;-2.108;2023-02-12T05:32:24;9.27;;;4.82;;
28934;SDS011;16044;52.726;-2.108;2023-02-12T05:34:51;8.40;;;4.78;;
28934;SDS011;16044;52.726;-2.108;2023-02-12T05:37:18;11.88;;;4.95;;
28934;SDS011;16044;52.726;-2.108;2023-02-12T05:39:44;8.48;;;4.75;;
28934;SDS011;16044;52.726;-2.108;2023-02-12T05:42:15;12.18;;;4.70;;
28934;SDS011;16044;52.726;-2.108;2023-02-12T05:44:42;9.55;;;5.22;;
28934;SDS011;16044;52.726;-2.108;2023-02-12T05:47:09;7.85;;;4.70;;
28934;SDS011;16044;52.726;-2.108;2023-02-12T05:49:36;10.48;;;4.47;;
28934;SDS011;16044;52.726;-2.108;2023-02-12T05:52:03;8.18;;;5.10;;
28934;SDS011;16044;52.726;-2.108;2023-02-12T05:54:30;9.38;;;5.32;;
28934;SDS011;16044;52.726;-2.108;2023-02-12T05:56:57;7.82;;;5.07;;
28934;SDS011;16044;52.726;-2.108;2023-02-12T05:59:23;7.47;;;4.70;;
28934;SDS011;16044;52.726;-2.108;2023-02-12T06:01:51;9.98;;;5.13;;
28934;SDS011;16044;52.726;-2.108;2023-02-12T06:04:19;9.35;;;5.10;;
28934;SDS011;16044;52.726;-2.108;2023-02-12T06:06:50;12.27;;;5.43;;
28934;SDS011;16044;52.726;-2.108;2023-02-12T06:09:18;9.60;;;4.80;;
28934;SDS011;16044;52.726;-2.108;2023-02-12T06:11:45;8.60;;;4.93;;
28934;SDS011;16044;52.726;-2.108;2023-02-12T06:14:13;9.52;;;5.18;;
28934;SDS011;16044;52.726;-2.108;2023-02-12T06:16:44;9.63;;;5.15;;
28934;SDS011;16044;52.726;-2.108;2023-02-12T06:19:12;7.97;;;4.85;;
28934;SDS011;16044;52.726;-2.108;2023-02-12T06:21:43;9.73;;;5.20;;
28934;SDS011;16044;52.726;-2.108;2023-02-12T06:24:11;9.43;;;5.32;;
28934;SDS011;16044;52.726;-2.108;2023-02-12T06:26:39;9.70;;;5.25;;
28934;SDS011;16044;52.726;-2.108;2023-02-12T06:29:06;9.23;;;5.38;;
28934;SDS011;16044;52.726;-2.108;2023-02-12T06:31:34;10.23;;;5.00;;
28934;SDS011;16044;52.726;-2.108;2023-02-12T06:34:03;11.75;;;5.35;;
28934;SDS011;16044;52.726;-2.108;2023-02-12T06:36:33;8.02;;;5.05;;
28934;SDS011;16044;52.726;-2.108;2023-02-12T06:39:01;10.32;;;5.53;;
28934;SDS011;16044;52.726;-2.108;2023-02-12T06:41:28;10.40;;;5.70;;
28934;SDS011;16044;52.726;-2.108;2023-02-12T06:43:55;11.57;;;5.63;;
28934;SDS011;16044;52.726;-2.108;2023-02-12T06:46:22;12.73;;;5.90;;
28934;SDS011;16044;52.726;-2.108;2023-02-12T06:48:53;9.98;;;5.50;;
28934;SDS011;16044;52.726;-2.108;2023-02-12T06:51:23;8.02;;;5.00;;
28934;SDS011;16044;52.726;-2.108;2023-02-12T06:53:51;12.27;;;5.80;;
28934;SDS011;16044;52.726;-2.108;2023-02-12T06:56:19;10.00;;;5.32;;
28934;SDS011;16044;52.726;-2.108;2023-02-12T06:58:57;9.00;;;5.13;;
28934;SDS011;16044;52.726;-2.108;2023-02-12T07:01:27;12.18;;;5.43;;
28934;SDS011;16044;52.726;-2.108;2023-02-12T07:03:59;10.48;;;5.47;;
28934;SDS011;16044;52.726;-2.108;2023-02-12T07:06:29;9.05;;;5.57;;
28934;SDS011;16044;52.726;-2.108;2023-02-12T07:09:00;11.50;;;5.63;;
28934;SDS011;16044;52.726;-2.108;2023-02-12T07:11:30;10.73;;;5.50;;
28934;SDS011;16044;52.726;-2.108;2023-02-12T07:14:03;10.05;;;5.72;;
28934;SDS011;16044;52.726;-2.108;2023-02-12T07:16:32;8.43;;;4.82;;
28934;SDS011;16044;52.726;-2.108;2023-02-12T07:18:59;9.30;;;5.72;;
28934;SDS011;16044;52.726;-2.108;2023-02-12T07:21:26;8.27;;;5.18;;
28934;SDS011;16044;52.726;-2.108;2023-02-12T07:23:53;13.82;;;6.38;;
28934;SDS011;16044;52.726;-2.108;2023-02-12T07:26:20;10.90;;;6.28;;
28934;SDS011;16044;52.726;-2.108;2023-02-12T07:28:48;9.48;;;6.28;;
28934;SDS011;16044;52.726;-2.108;2023-02-12T07:31:19;12.98;;;7.00;;
28934;SDS011;16044;52.726;-2.108;2023-02-12T07:33:52;10.65;;;6.00;;
28934;SDS011;16044;52.726;-2.108;2023-02-12T07:36:21;9.38;;;5.70;;
28934;SDS011;16044;52.726;-2.108;2023-02-12T07:38:49;10.40;;;5.80;;
28934;SDS011;16044;52.726;-2.108;2023-02-12T07:41:20;16.25;;;7.30;;
28934;SDS011;16044;52.726;-2.108;2023-02-12T07:43:54;13.48;;;6.88;;
28934;SDS011;16044;52.726;-2.108;2023-02-12T07:46:25;10.43;;;5.80;;
28934;SDS011;16044;52.726;-2.108;2023-02-12T07:49:00;9.75;;;6.13;;
28934;SDS011;16044;52.726;-2.108;2023-02-12T07:51:31;10.80;;;6.20;;
28934;SDS011;16044;52.726;-2.108;2023-02-12T07:53:59;10.70;;;5.90;;
28934;SDS011;16044;52.726;-2.108;2023-02-12T07:56:28;14.30;;;6.80;;
28934;SDS011;16044;52.726;-2.108;2023-02-12T07:58:59;10.75;;;5.78;;
28934;SDS011;16044;52.726;-2.108;2023-02-12T08:01:32;14.30;;;5.95;;
28934;SDS011;16044;52.726;-2.108;2023-02-12T08:04:07;7.53;;;3.88;;
28934;SDS011;16044;52.726;-2.108;2023-02-12T08:06:38;8.05;;;4.50;;
28934;SDS011;16044;52.726;-2.108;2023-02-12T08:09:12;7.82;;;5.03;;
28934;SDS011;16044;52.726;-2.108;2023-02-12T08:11:43;6.93;;;5.05;;
28934;SDS011;16044;52.726;-2.108;2023-02-12T08:14:11;9.90;;;5.05;;
28934;SDS011;16044;52.726;-2.108;2023-02-12T08:16:41;9.30;;;5.00;;
28934;SDS011;16044;52.726;-2.108;2023-02-12T08:19:10;7.40;;;5.07;;
28934;SDS011;16044;52.726;-2.108;2023-02-12T08:21:47;9.57;;;5.22;;
28934;SDS011;16044;52.726;-2.108;2023-02-12T08:24:17;9.05;;;5.13;;
28934;SDS011;16044;52.726;-2.108;2023-02-12T08:26:44;12.25;;;5.10;;
28934;SDS011;16044;52.726;-2.108;2023-02-12T08:29:15;15.02;;;5.13;;
28934;SDS011;16044;52.726;-2.108;2023-02-12T08:31:46;8.30;;;5.30;;
28934;SDS011;16044;52.726;-2.108;2023-02-12T08:34:19;9.00;;;5.57;;
28934;SDS011;16044;52.726;-2.108;2023-02-12T08:36:49;13.40;;;6.80;;
28934;SDS011;16044;52.726;-2.108;2023-02-12T08:39:19;13.27;;;6.90;;
28934;SDS011;16044;52.726;-2.108;2023-02-12T08:41:47;13.25;;;6.53;;
28934;SDS011;16044;52.726;-2.108;2023-02-12T08:44:15;13.18;;;6.13;;
28934;SDS011;16044;52.726;-2.108;2023-02-12T08:46:43;8.13;;;5.28;;
28934;SDS011;16044;52.726;-2.108;2023-02-12T08:49:14;8.55;;;5.20;;
28934;SDS011;16044;52.726;-2.108;2023-02-12T08:51:53;9.20;;;5.22;;
28934;SDS011;16044;52.726;-2.108;2023-02-12T08:54:23;9.98;;;5.65;;
28934;SDS011;16044;52.726;-2.108;2023-02-12T08:56:56;7.78;;;5.15;;
28934;SDS011;16044;52.726;-2.108;2023-02-12T08:59:25;13.02;;;5.55;;
28934;SDS011;16044;52.726;-2.108;2023-02-12T09:01:52;9.32;;;5.45;;
28934;SDS011;16044;52.726;-2.108;2023-02-12T09:04:21;9.20;;;5.40;;
28934;SDS011;16044;52.726;-2.108;2023-02-12T09:06:51;11.48;;;5.53;;
28934;SDS011;16044;52.726;-2.108;2023-02-12T09:09:18;9.10;;;5.50;;
28934;SDS011;16044;52.726;-2.108;2023-02-12T09:11:46;9.10;;;5.20;;
28934;SDS011;16044;52.726;-2.108;2023-02-12T09:14:14;17.38;;;6.63;;
28934;SDS011;16044;52.726;-2.108;2023-02-12T09:16:44;11.23;;;6.05;;
28934;SDS011;16044;52.726;-2.108;2023-02-12T09:19:12;8.88;;;6.00;;
28934;SDS011;16044;52.726;-2.108;2023-02-12T09:21:40;10.75;;;6.78;;
28934;SDS011;16044;52.726;-2.108;2023-02-12T09:24:08;12.63;;;6.88;;
28934;SDS011;16044;52.726;-2.108;2023-02-12T09:26:35;12.30;;;7.70;;
28934;SDS011;16044;52.726;-2.108;2023-02-12T09:29:02;11.30;;;7.22;;
28934;SDS011;16044;52.726;-2.108;2023-02-12T09:31:30;12.25;;;7.55;;
28934;SDS011;16044;52.726;-2.108;2023-02-12T09:34:00;11.27;;;7.25;;
28934;SDS011;16044;52.726;-2.108;2023-02-12T09:36:29;15.38;;;7.93;;
28934;SDS011;16044;52.726;-2.108;2023-02-12T09:38:57;9.48;;;7.38;;
28934;SDS011;16044;52.726;-2.108;2023-02-12T09:52:32;9.10;;;6.90;;
28934;SDS011;16044;52.726;-2.108;2023-02-12T09:55:00;10.45;;;7.00;;
28934;SDS011;16044;52.726;-2.108;2023-02-12T10:02:41;9.20;;;5.80;;
28934;SDS011;16044;52.726;-2.108;2023-02-12T10:05:19;7.63;;;5.93;;
28934;SDS011;16044;52.726;-2.108;2023-02-12T10:19:43;8.90;;;4.20;;
28934;SDS011;16044;52.726;-2.108;2023-02-12T10:22:45;7.53;;;4.18;;
28934;SDS011;16044;52.726;-2.108;2023-02-12T10:28:18;6.80;;;3.72;;
28934;SDS011;16044;52.726;-2.108;2023-02-12T10:33:33;5.50;;;3.17;;
28934;SDS011;16044;52.726;-2.108;2023-02-12T10:39:02;6.80;;;3.40;;
28934;SDS011;16044;52.726;-2.108;2023-02-12T10:42:01;8.40;;;4.00;;
28934;SDS011;16044;52.726;-2.108;2023-02-12T10:44:37;6.47;;;3.80;;
28934;SDS011;16044;52.726;-2.108;2023-02-12T10:47:04;7.30;;;3.38;;
28934;SDS011;16044;52.726;-2.108;2023-02-12T10:49:33;4.68;;;3.25;;
28934;SDS011;16044;52.726;-2.108;2023-02-12T10:52:02;7.28;;;3.40;;
28934;SDS011;16044;52.726;-2.108;2023-02-12T10:54:40;7.50;;;3.33;;
28934;SDS011;16044;52.726;-2.108;2023-02-12T10:57:13;5.20;;;3.10;;
28934;SDS011;16044;52.726;-2.108;2023-02-12T10:59:53;6.80;;;3.17;;
28934;SDS011;16044;52.726;-2.108;2023-02-12T11:02:24;5.75;;;3.05;;
28934;SDS011;16044;52.726;-2.108;2023-02-12T11:05:00;6.63;;;2.97;;
28934;SDS011;16044;52.726;-2.108;2023-02-12T11:07:50;9.13;;;3.80;;
28934;SDS011;16044;52.726;-2.108;2023-02-12T11:10:24;6.30;;;3.47;;
28934;SDS011;16044;52.726;-2.108;2023-02-12T11:13:04;8.15;;;5.53;;
28934;SDS011;16044;52.726;-2.108;2023-02-12T11:15:50;9.93;;;5.13;;
28934;SDS011;16044;52.726;-2.108;2023-02-12T11:18:25;8.13;;;4.93;;
28934;SDS011;16044;52.726;-2.108;2023-02-12T11:23:40;5.50;;;3.60;;
28934;SDS011;16044;52.726;-2.108;2023-02-12T11:31:31;9.20;;;4.18;;
28934;SDS011;16044;52.726;-2.108;2023-02-12T11:34:14;8.25;;;4.10;;
28934;SDS011;16044;52.726;-2.108;2023-02-12T11:36:45;6.00;;;4.28;;
28934;SDS011;16044;52.726;-2.108;2023-02-12T11:39:20;6.68;;;3.90;;
28934;SDS011;16044;52.726;-2.108;2023-02-12T11:41:56;9.13;;;4.55;;
28934;SDS011;16044;52.726;-2.108;2023-02-12T11:47:08;10.32;;;4.18;;
28934;SDS011;16044;52.726;-2.108;2023-02-12T11:49:50;7.80;;;3.85;;
28934;SDS011;16044;52.726;-2.108;2023-02-12T11:52:25;7.22;;;4.38;;
28934;SDS011;16044;52.726;-2.108;2023-02-12T11:54:59;9.02;;;4.55;;
28934;SDS011;16044;52.726;-2.108;2023-02-12T12:02:49;6.28;;;3.80;;
28934;SDS011;16044;52.726;-2.108;2023-02-12T12:05:30;8.35;;;4.18;;
28934;SDS011;16044;52.726;-2.108;2023-02-12T12:08:04;7.25;;;4.80;;
28934;SDS011;16044;52.726;-2.108;2023-02-12T12:10:49;8.27;;;4.20;;
28934;SDS011;16044;52.726;-2.108;2023-02-12T12:13:26;7.18;;;4.20;;
28934;SDS011;16044;52.726;-2.108;2023-02-12T12:16:46;8.05;;;4.85;;
28934;SDS011;16044;52.726;-2.108;2023-02-12T12:19:21;9.15;;;4.63;;
28934;SDS011;16044;52.726;-2.108;2023-02-12T12:22:35;9.68;;;5.00;;
28934;SDS011;16044;52.726;-2.108;2023-02-12T12:25:21;12.48;;;7.03;;
28934;SDS011;16044;52.726;-2.108;2023-02-12T12:34:28;10.52;;;6.07;;
28934;SDS011;16044;52.726;-2.108;2023-02-12T12:42:49;9.90;;;5.80;;
28934;SDS011;16044;52.726;-2.108;2023-02-12T12:45:50;10.85;;;5.80;;
28934;SDS011;16044;52.726;-2.108;2023-02-12T12:51:23;9.10;;;5.57;;
28934;SDS011;16044;52.726;-2.108;2023-02-12T12:57:38;7.45;;;5.30;;
28934;SDS011;16044;52.726;-2.108;2023-02-12T13:06:04;9.73;;;5.57;;
28934;SDS011;16044;52.726;-2.108;2023-02-12T13:14:40;8.68;;;6.22;;
28934;SDS011;16044;52.726;-2.108;2023-02-12T13:19:58;11.27;;;6.90;;
28934;SDS011;16044;52.726;-2.108;2023-02-12T13:28:14;8.98;;;6.45;;
28934;SDS011;16044;52.726;-2.108;2023-02-12T13:30:53;9.20;;;7.10;;
28934;SDS011;16044;52.726;-2.108;2023-02-12T13:33:23;11.52;;;7.47;;
28934;SDS011;16044;52.726;-2.108;2023-02-12T13:35:57;12.13;;;7.85;;
28934;SDS011;16044;52.726;-2.108;2023-02-12T13:38:30;13.93;;;8.07;;
28934;SDS011;16044;52.726;-2.108;2023-02-12T13:41:04;15.15;;;8.23;;
28934;SDS011;16044;52.726;-2.108;2023-02-12T13:43:38;10.20;;;7.88;;
28934;SDS011;16044;52.726;-2.108;2023-02-12T13:46:40;13.32;;;8.27;;
28934;SDS011;16044;52.726;-2.108;2023-02-12T13:52:22;14.10;;;8.73;;
28934;SDS011;16044;52.726;-2.108;2023-02-12T13:55:08;13.05;;;9.32;;
28934;SDS011;16044;52.726;-2.108;2023-02-12T13:57:40;14.98;;;9.98;;
28934;SDS011;16044;52.726;-2.108;2023-02-12T14:03:15;14.57;;;9.85;;
28934;SDS011;16044;52.726;-2.108;2023-02-12T14:05:42;13.68;;;10.60;;
28934;SDS011;16044;52.726;-2.108;2023-02-12T14:08:20;14.68;;;9.88;;
28934;SDS011;16044;52.726;-2.108;2023-02-12T14:11:24;16.60;;;10.52;;
28934;SDS011;16044;52.726;-2.108;2023-02-12T14:22:55;13.77;;;9.35;;
28934;SDS011;16044;52.726;-2.108;2023-02-12T14:24:57;11.23;;;8.65;;
28934;SDS011;16044;52.726;-2.108;2023-02-12T14:27:51;13.98;;;9.35;;
28934;SDS011;16044;52.726;-2.108;2023-02-12T14:35:36;11.93;;;9.10;;
28934;SDS011;16044;52.726;-2.108;2023-02-12T14:40:43;15.15;;;9.68;;
28934;SDS011;16044;52.726;-2.108;2023-02-12T14:51:26;14.82;;;9.48;;
28934;SDS011;16044;52.726;-2.108;2023-02-12T14:54:13;15.68;;;9.35;;
28934;SDS011;16044;52.726;-2.108;2023-02-12T14:56:57;15.30;;;10.13;;
28934;SDS011;16044;52.726;-2.108;2023-02-12T14:59:31;15.55;;;10.35;;
28934;SDS011;16044;52.726;-2.108;2023-02-12T15:02:04;13.45;;;9.73;;
28934;SDS011;16044;52.726;-2.108;2023-02-12T15:04:38;18.73;;;10.82;;
28934;SDS011;16044;52.726;-2.108;2023-02-12T15:07:11;20.10;;;10.98;;
28934;SDS011;16044;52.726;-2.108;2023-02-12T15:10:03;17.85;;;13.23;;
28934;SDS011;16044;52.726;-2.108;2023-02-12T15:18:21;26.42;;;17.80;;
28934;SDS011;16044;52.726;-2.108;2023-02-12T15:21:00;30.52;;;20.67;;
28934;SDS011;16044;52.726;-2.108;2023-02-12T15:23:59;27.20;;;19.90;;
28934;SDS011;16044;52.726;-2.108;2023-02-12T15:26:47;28.05;;;20.27;;
28934;SDS011;16044;52.726;-2.108;2023-02-12T15:31:57;30.80;;;22.67;;
28934;SDS011;16044;52.726;-2.108;2023-02-12T15:34:29;32.20;;;23.50;;
28934;SDS011;16044;52.726;-2.108;2023-02-12T15:37:00;34.88;;;23.02;;
28934;SDS011;16044;52.726;-2.108;2023-02-12T15:39:47;35.55;;;24.70;;
28934;SDS011;16044;52.726;-2.108;2023-02-12T15:42:31;31.48;;;23.70;;
28934;SDS011;16044;52.726;-2.108;2023-02-12T15:45:06;32.60;;;22.63;;
28934;SDS011;16044;52.726;-2.108;2023-02-12T15:47:44;34.47;;;23.48;;
28934;SDS011;16044;52.726;-2.108;2023-02-12T15:53:26;32.72;;;23.58;;
28934;SDS011;16044;52.726;-2.108;2023-02-12T15:55:57;32.15;;;23.38;;
28934;SDS011;16044;52.726;-2.108;2023-02-12T15:59:13;33.45;;;23.48;;
28934;SDS011;16044;52.726;-2.108;2023-02-12T16:01:17;38.08;;;25.15;;
28934;SDS011;16044;52.726;-2.108;2023-02-12T16:03:52;31.05;;;23.42;;
28934;SDS011;16044;52.726;-2.108;2023-02-12T16:06:26;36.03;;;25.42;;
28934;SDS011;16044;52.726;-2.108;2023-02-12T16:08:58;34.55;;;24.95;;
28934;SDS011;16044;52.726;-2.108;2023-02-12T16:11:40;32.80;;;24.08;;
28934;SDS011;16044;52.726;-2.108;2023-02-12T16:14:21;32.33;;;24.50;;
28934;SDS011;16044;52.726;-2.108;2023-02-12T16:17:25;38.28;;;25.63;;
28934;SDS011;16044;52.726;-2.108;2023-02-12T16:20:05;32.90;;;24.02;;
28934;SDS011;16044;52.726;-2.108;2023-02-12T16:22:44;40.63;;;24.30;;
28934;SDS011;16044;52.726;-2.108;2023-02-12T16:25:27;34.20;;;24.50;;
28934;SDS011;16044;52.726;-2.108;2023-02-12T16:28:02;34.42;;;23.63;;
28934;SDS011;16044;52.726;-2.108;2023-02-12T16:30:43;35.65;;;24.67;;
28934;SDS011;16044;52.726;-2.108;2023-02-12T16:33:33;36.13;;;23.20;;
28934;SDS011;16044;52.726;-2.108;2023-02-12T16:36:02;36.20;;;25.33;;
28934;SDS011;16044;52.726;-2.108;2023-02-12T16:38:43;35.13;;;25.35;;
28934;SDS011;16044;52.726;-2.108;2023-02-12T16:46:27;38.05;;;24.65;;
28934;SDS011;16044;52.726;-2.108;2023-02-12T16:48:57;38.25;;;23.50;;
28934;SDS011;16044;52.726;-2.108;2023-02-12T16:54:01;32.75;;;21.52;;
28934;SDS011;16044;52.726;-2.108;2023-02-12T16:56:31;34.72;;;23.65;;
28934;SDS011;16044;52.726;-2.108;2023-02-12T16:59:04;39.15;;;24.88;;
28934;SDS011;16044;52.726;-2.108;2023-02-12T17:01:32;35.08;;;21.77;;
28934;SDS011;16044;52.726;-2.108;2023-02-12T17:04:05;32.33;;;21.17;;
28934;SDS011;16044;52.726;-2.108;2023-02-12T17:06:34;28.42;;;19.90;;
28934;SDS011;16044;52.726;-2.108;2023-02-12T17:09:01;25.95;;;19.38;;
28934;SDS011;16044;52.726;-2.108;2023-02-12T17:11:28;27.27;;;18.70;;
28934;SDS011;16044;52.726;-2.108;2023-02-12T17:13:55;31.95;;;19.63;;
28934;SDS011;16044;52.726;-2.108;2023-02-12T17:16:22;25.60;;;18.10;;
28934;SDS011;16044;52.726;-2.108;2023-02-12T17:18:57;22.58;;;14.43;;
28934;SDS011;16044;52.726;-2.108;2023-02-12T17:24:12;24.23;;;15.45;;
28934;SDS011;16044;52.726;-2.108;2023-02-12T17:26:48;25.17;;;15.77;;
28934;SDS011;16044;52.726;-2.108;2023-02-12T17:29:17;22.20;;;15.68;;
28934;SDS011;16044;52.726;-2.108;2023-02-12T17:31:45;22.35;;;15.05;;
28934;SDS011;16044;52.726;-2.108;2023-02-12T17:34:14;21.85;;;15.27;;
28934;SDS011;16044;52.726;-2.108;2023-02-12T17:36:42;24.65;;;16.33;;
28934;SDS011;16044;52.726;-2.108;2023-02-12T17:39:10;23.58;;;15.13;;
28934;SDS011;16044;52.726;-2.108;2023-02-12T17:41:39;24.50;;;15.73;;
28934;SDS011;16044;52.726;-2.108;2023-02-12T17:44:06;21.30;;;14.60;;
28934;SDS011;16044;52.726;-2.108;2023-02-12T17:46:33;23.42;;;15.52;;
28934;SDS011;16044;52.726;-2.108;2023-02-12T17:49:00;26.23;;;17.35;;
28934;SDS011;16044;52.726;-2.108;2023-02-12T17:51:27;28.90;;;17.02;;
28934;SDS011;16044;52.726;-2.108;2023-02-12T17:53:54;21.88;;;15.98;;
28934;SDS011;16044;52.726;-2.108;2023-02-12T17:56:22;23.65;;;16.67;;
28934;SDS011;16044;52.726;-2.108;2023-02-12T17:58:51;27.75;;;17.20;;
28934;SDS011;16044;52.726;-2.108;2023-02-12T18:01:19;23.27;;;14.85;;
28934;SDS011;16044;52.726;-2.108;2023-02-12T18:03:48;22.30;;;16.23;;
28934;SDS011;16044;52.726;-2.108;2023-02-12T18:06:26;28.45;;;15.60;;
28934;SDS011;16044;52.726;-2.108;2023-02-12T18:08:55;26.75;;;16.13;;
28934;SDS011;16044;52.726;-2.108;2023-02-12T18:11:24;26.88;;;15.82;;
28934;SDS011;16044;52.726;-2.108;2023-02-12T18:13:51;23.02;;;16.77;;